createdAt,value
2022-10-20T00:00:06.462Z,9.56
2022-10-20T00:03:08.389Z,9.61
2022-10-20T00:06:12.665Z,9.43
2022-10-20T00:09:14.767Z,9.45
2022-10-20T00:12:18.048Z,9.45
2022-10-20T00:15:19.983Z,9.31
2022-10-20T00:18:23.282Z,9.45
2022-10-20T00:21:27.822Z,9.45
2022-10-20T00:24:29.684Z,9.50
2022-10-20T00:27:33.041Z,9.28
2022-10-20T00:30:35.658Z,9.23
2022-10-20T00:33:38.010Z,9.37
2022-10-20T00:36:40.370Z,9.19
2022-10-20T00:39:42.219Z,9.38
2022-10-20T00:42:46.325Z,9.43
2022-10-20T00:45:53.970Z,9.51
2022-10-20T00:49:00.808Z,9.57
2022-10-20T00:52:03.068Z,9.54
2022-10-20T00:55:07.377Z,9.48
2022-10-20T00:58:10.668Z,9.49
2022-10-20T01:01:14.354Z,9.53
2022-10-20T01:04:17.227Z,9.49
2022-10-20T01:07:19.568Z,9.48
2022-10-20T01:10:23.330Z,9.40
2022-10-20T01:13:35.614Z,9.37
2022-10-20T01:16:47.631Z,9.28
2022-10-20T01:20:18.761Z,9.27
2022-10-20T01:23:48.288Z,9.18
2022-10-20T01:27:20.719Z,9.07
2022-10-20T01:30:24.087Z,9.09
2022-10-20T01:33:36.886Z,9.09
2022-10-20T01:36:45.825Z,9.14
2022-10-20T01:39:53.755Z,8.97
2022-10-20T01:42:59.816Z,8.98
2022-10-20T01:46:05.634Z,9.09
2022-10-20T01:49:08.790Z,9.09
2022-10-20T01:52:10.965Z,8.95
2022-10-20T01:55:14.459Z,8.96
2022-10-20T01:58:29.952Z,9.01
2022-10-20T02:01:49.633Z,8.99
2022-10-20T02:05:09.135Z,9.00
2022-10-20T02:08:15.587Z,9.04
2022-10-20T02:11:25.646Z,8.94
2022-10-20T02:14:28.517Z,8.98
2022-10-20T02:17:35.696Z,8.94
2022-10-20T02:20:38.033Z,9.02
2022-10-20T02:23:45.023Z,9.08
2022-10-20T02:26:47.484Z,8.96
2022-10-20T02:29:55.738Z,8.96
2022-10-20T02:32:59.001Z,8.88
2022-10-20T02:36:05.307Z,8.84
2022-10-20T02:39:08.214Z,8.71
2022-10-20T02:42:10.127Z,8.76
2022-10-20T02:45:12.064Z,8.82
2022-10-20T02:48:15.416Z,8.79
2022-10-20T02:51:17.304Z,8.69
2022-10-20T02:54:19.543Z,8.77
2022-10-20T02:57:21.551Z,8.78
2022-10-20T03:00:23.565Z,8.83
2022-10-20T03:03:26.982Z,8.75
2022-10-20T03:06:28.892Z,8.69
2022-10-20T03:09:30.805Z,8.45
2022-10-20T03:12:33.097Z,8.62
2022-10-20T03:15:35.053Z,8.76
2022-10-20T03:18:38.728Z,8.75
2022-10-20T03:21:40.714Z,8.67
2022-10-20T03:24:42.949Z,8.68
2022-10-20T03:27:44.852Z,8.70
2022-10-20T03:30:46.758Z,8.62
2022-10-20T03:33:50.248Z,8.71
2022-10-20T03:36:52.284Z,8.60
2022-10-20T03:39:54.650Z,8.36
2022-10-20T03:42:56.526Z,8.13
2022-10-20T03:46:02.766Z,8.34
2022-10-20T03:49:07.763Z,8.45
2022-10-20T03:52:09.741Z,8.52
2022-10-20T03:55:11.683Z,8.51
2022-10-20T03:58:13.576Z,8.39
2022-10-20T04:01:17.596Z,8.49
2022-10-20T04:04:20.931Z,8.54
2022-10-20T04:07:23.023Z,8.47
2022-10-20T04:10:25.882Z,8.62
2022-10-20T04:13:27.801Z,8.42
2022-10-20T04:16:29.769Z,8.50
2022-10-20T04:19:33.096Z,8.54
2022-10-20T04:22:35.555Z,8.57
2022-10-20T04:25:40.135Z,8.45
2022-10-20T04:28:42.448Z,8.29
2022-10-20T04:31:48.176Z,8.38
2022-10-20T04:34:52.572Z,8.45
2022-10-20T04:37:54.739Z,8.44
2022-10-20T04:40:59.166Z,8.40
2022-10-20T04:44:04.061Z,8.49
2022-10-20T04:47:06.323Z,8.52
2022-10-20T04:50:10.104Z,8.51
2022-10-20T04:53:12.047Z,8.39
2022-10-20T04:56:18.329Z,8.17
2022-10-20T04:59:20.318Z,8.25
2022-10-20T05:02:22.787Z,8.37
2022-10-20T05:05:26.412Z,8.32
2022-10-20T05:08:28.461Z,8.10
2022-10-20T05:11:31.776Z,8.21
2022-10-20T05:14:33.744Z,8.07
2022-10-20T05:17:35.706Z,8.27
2022-10-20T05:20:41.241Z,8.17
2022-10-20T05:23:56.071Z,8.13
2022-10-20T05:26:57.992Z,8.19
2022-10-20T05:30:01.131Z,8.26
2022-10-20T05:33:03.780Z,8.35
2022-10-20T05:36:12.050Z,8.09
2022-10-20T05:39:14.224Z,8.24
2022-10-20T05:42:16.121Z,8.22
2022-10-20T05:45:18.045Z,8.34
2022-10-20T05:48:20.002Z,8.40
2022-10-20T05:51:26.559Z,8.22
2022-10-20T05:54:28.538Z,8.29
2022-10-20T05:57:30.635Z,8.23
2022-10-20T06:00:32.946Z,8.23
2022-10-20T06:03:35.248Z,8.15
2022-10-20T06:06:38.534Z,8.29
2022-10-20T06:09:41.253Z,8.07
2022-10-20T06:12:43.168Z,8.07
2022-10-20T06:15:45.456Z,8.19
2022-10-20T06:18:47.663Z,8.19
2022-10-20T06:21:51.757Z,7.68
2022-10-20T06:24:53.683Z,7.90
2022-10-20T06:27:55.607Z,7.91
2022-10-20T06:30:57.484Z,8.01
2022-10-20T06:34:00.098Z,8.19
2022-10-20T06:37:03.399Z,8.21
2022-10-20T06:40:06.410Z,8.25
2022-10-20T06:43:08.759Z,8.33
2022-10-20T06:46:14.173Z,8.29
2022-10-20T06:49:16.111Z,8.17
2022-10-20T06:52:19.343Z,7.95
2022-10-20T06:55:21.238Z,7.98
2022-10-20T06:58:24.454Z,7.97
2022-10-20T07:01:28.377Z,7.98
2022-10-20T07:04:30.406Z,8.16
2022-10-20T07:07:33.802Z,8.20
2022-10-20T07:10:36.199Z,8.24
2022-10-20T07:13:39.090Z,8.27
2022-10-20T07:16:42.656Z,8.22
2022-10-20T07:19:44.659Z,8.29
2022-10-20T07:22:48.365Z,8.26
2022-10-20T07:25:50.430Z,8.27
2022-10-20T07:28:55.992Z,8.21
2022-10-20T07:31:59.985Z,8.18
2022-10-20T07:35:04.729Z,8.17
2022-10-20T07:38:08.176Z,8.22
2022-10-20T07:41:10.676Z,8.32
2022-10-20T07:44:12.836Z,8.27
2022-10-20T07:47:14.806Z,8.28
2022-10-20T07:50:16.748Z,8.41
2022-10-20T07:53:20.083Z,8.38
2022-10-20T07:56:23.098Z,8.39
2022-10-20T07:59:25.137Z,8.37
2022-10-20T08:02:27.152Z,8.48
2022-10-20T08:05:29.131Z,8.50
2022-10-20T08:08:32.975Z,8.50
2022-10-20T08:11:35.356Z,8.50
2022-10-20T08:14:37.348Z,8.53
2022-10-20T08:17:39.393Z,8.53
2022-10-20T08:20:49.227Z,8.44
2022-10-20T08:23:52.553Z,8.15
2022-10-20T08:26:54.551Z,8.36
2022-10-20T08:30:06.308Z,8.41
2022-10-20T08:33:18.357Z,8.55
2022-10-20T08:36:21.278Z,8.45
2022-10-20T08:39:24.831Z,8.60
2022-10-20T08:42:27.045Z,8.46
2022-10-20T08:45:28.944Z,8.65
2022-10-20T08:48:34.047Z,8.65
2022-10-20T08:51:37.774Z,8.54
2022-10-20T08:54:41.235Z,8.62
2022-10-20T08:57:43.430Z,8.59
2022-10-20T09:00:46.811Z,8.75
2022-10-20T09:03:54.646Z,8.82
2022-10-20T09:07:00.198Z,8.91
2022-10-20T09:10:13.820Z,9.03
2022-10-20T09:13:20.705Z,9.14
2022-10-20T09:16:40.929Z,9.32
2022-10-20T09:19:48.513Z,9.41
2022-10-20T09:22:50.639Z,9.49
2022-10-20T09:25:53.954Z,9.47
2022-10-20T09:29:13.087Z,9.59
2022-10-20T09:32:45.561Z,9.77
2022-10-20T09:35:47.296Z,9.81
2022-10-20T09:38:51.200Z,9.82
2022-10-20T09:42:04.017Z,9.79
2022-10-20T09:45:16.484Z,9.98
2022-10-20T09:48:23.841Z,10.12
2022-10-20T09:51:28.159Z,10.09
2022-10-20T09:54:30.806Z,10.18
2022-10-20T09:57:34.646Z,10.17
2022-10-20T10:00:44.338Z,10.20
2022-10-20T10:03:47.130Z,10.53
2022-10-20T10:06:49.033Z,10.37
2022-10-20T10:09:56.126Z,10.46
2022-10-20T10:13:01.752Z,10.55
2022-10-20T10:16:07.021Z,10.71
2022-10-20T10:19:18.106Z,10.75
2022-10-20T10:22:20.306Z,10.80
2022-10-20T10:25:27.217Z,10.71
2022-10-20T10:28:36.589Z,10.89
2022-10-20T10:31:45.817Z,10.89
2022-10-20T10:35:09.423Z,10.87
2022-10-20T10:38:13.788Z,10.88
2022-10-20T10:41:24.062Z,11.01
2022-10-20T10:44:42.534Z,11.19
2022-10-20T10:48:18.120Z,11.14
2022-10-20T10:51:36.305Z,11.26
2022-10-20T10:54:49.433Z,11.30
2022-10-20T10:58:02.284Z,11.52
2022-10-20T11:01:19.967Z,11.53
2022-10-20T11:04:40.335Z,11.59
2022-10-20T11:07:46.129Z,11.68
2022-10-20T11:10:54.869Z,11.76
2022-10-20T11:14:10.944Z,11.79
2022-10-20T11:17:29.892Z,11.86
2022-10-20T11:20:40.624Z,12.07
2022-10-20T11:23:59.711Z,12.00
2022-10-20T11:27:04.859Z,12.21
2022-10-20T11:30:14.915Z,12.14
2022-10-20T11:33:22.812Z,12.23
2022-10-20T11:36:31.528Z,12.26
2022-10-20T11:39:41.297Z,12.28
2022-10-20T11:42:48.525Z,12.34
2022-10-20T11:45:53.878Z,12.65
2022-10-20T11:49:00.354Z,12.68
2022-10-20T11:52:22.503Z,12.78
2022-10-20T11:55:35.787Z,12.80
2022-10-20T11:59:01.543Z,12.86
2022-10-20T12:02:46.866Z,12.63
2022-10-20T12:06:27.216Z,12.65
2022-10-20T12:09:49.578Z,12.70
2022-10-20T12:12:58.121Z,12.67
2022-10-20T12:16:00.389Z,12.75
2022-10-20T12:19:07.237Z,12.91
2022-10-20T12:22:43.248Z,12.80
2022-10-20T12:25:45.264Z,12.70
2022-10-20T12:28:47.159Z,12.77
2022-10-20T12:32:24.227Z,12.95
2022-10-20T12:36:01.633Z,12.82
2022-10-20T12:39:20.258Z,13.06
2022-10-20T12:42:27.817Z,13.03
2022-10-20T12:45:38.636Z,13.08
2022-10-20T12:48:46.063Z,13.01
2022-10-20T12:51:51.554Z,13.03
2022-10-20T12:55:02.673Z,13.28
2022-10-20T12:58:12.802Z,13.40
2022-10-20T13:01:15.150Z,13.57
2022-10-20T13:04:50.877Z,13.30
2022-10-20T13:08:00.886Z,13.41
2022-10-20T13:11:48.503Z,13.36
2022-10-20T13:14:55.858Z,13.29
2022-10-20T13:18:00.589Z,13.32
2022-10-20T13:21:18.795Z,13.40
2022-10-20T13:24:28.207Z,13.28
2022-10-20T13:27:30.200Z,13.20
2022-10-20T13:30:35.738Z,13.27
2022-10-20T13:37:29.261Z,13.43
2022-10-20T13:40:44.339Z,13.47
2022-10-20T13:43:57.510Z,13.49
2022-10-20T13:47:10.505Z,13.68
2022-10-20T13:50:16.027Z,13.73
2022-10-20T13:53:22.267Z,13.66
2022-10-20T13:56:34.854Z,13.52
2022-10-20T13:59:39.593Z,13.54
2022-10-20T14:02:53.607Z,13.26
2022-10-20T14:05:55.616Z,13.36
2022-10-20T14:08:59.530Z,13.33
2022-10-20T14:12:04.338Z,13.19
2022-10-20T14:15:08.312Z,13.09
2022-10-20T14:18:22.711Z,13.01
2022-10-20T14:21:24.726Z,13.09
2022-10-20T14:24:31.351Z,13.06
2022-10-20T14:27:36.695Z,13.09
2022-10-20T14:30:41.111Z,13.09
2022-10-20T14:33:46.991Z,13.12
2022-10-20T14:36:50.551Z,13.05
2022-10-20T14:39:52.519Z,12.99
2022-10-20T14:42:59.820Z,13.04
2022-10-20T14:46:03.535Z,13.11
2022-10-20T14:49:15.465Z,13.20
2022-10-20T14:52:22.643Z,13.09
2022-10-20T14:55:31.875Z,13.20
2022-10-20T14:58:37.919Z,13.13
2022-10-20T15:01:40.066Z,12.92
2022-10-20T15:04:44.702Z,12.84
2022-10-20T15:07:46.764Z,12.83
2022-10-20T15:10:49.171Z,12.94
2022-10-20T15:13:52.345Z,12.93
2022-10-20T15:16:54.450Z,13.06
2022-10-20T15:19:58.213Z,12.96
2022-10-20T15:23:02.182Z,12.78
2022-10-20T15:26:06.789Z,12.56
2022-10-20T15:29:11.099Z,12.60
2022-10-20T15:32:13.066Z,12.65
2022-10-20T15:35:18.528Z,12.49
2022-10-20T15:38:21.200Z,12.47
2022-10-20T15:41:25.652Z,12.45
2022-10-20T15:44:27.658Z,12.42
2022-10-20T15:47:29.711Z,12.44
2022-10-20T15:50:33.624Z,12.26
2022-10-20T15:53:36.129Z,12.20
2022-10-20T15:56:38.121Z,12.27
2022-10-20T15:59:40.142Z,12.19
2022-10-20T16:02:42.480Z,12.10
2022-10-20T16:05:46.596Z,12.11
2022-10-20T16:08:50.114Z,12.06
2022-10-20T16:11:52.052Z,11.97
2022-10-20T16:14:54.466Z,11.98
2022-10-20T16:17:57.077Z,11.93
2022-10-20T16:21:01.296Z,11.96
2022-10-20T16:24:03.489Z,11.99
2022-10-20T16:27:05.735Z,11.84
2022-10-20T16:30:08.926Z,11.78
2022-10-20T16:33:11.297Z,11.81
2022-10-20T16:36:16.463Z,11.75
2022-10-20T16:39:18.525Z,11.63
2022-10-20T16:42:21.110Z,11.64
2022-10-20T16:48:32.842Z,11.55
2022-10-20T16:51:38.253Z,11.52
2022-10-20T16:57:44.167Z,11.42
2022-10-20T17:00:56.228Z,11.41
2022-10-20T17:03:59.060Z,11.38
2022-10-20T17:07:03.994Z,11.48
2022-10-20T17:10:07.479Z,11.41
2022-10-20T17:13:09.967Z,11.46
2022-10-20T17:16:15.122Z,11.28
2022-10-20T17:19:19.162Z,11.35
2022-10-20T17:22:26.121Z,11.22
2022-10-20T17:25:31.399Z,11.27
2022-10-20T17:28:36.253Z,11.26
2022-10-20T17:31:39.284Z,11.15
2022-10-20T17:34:42.006Z,11.20
2022-10-20T17:37:46.544Z,11.16
2022-10-20T17:40:49.635Z,11.13
2022-10-20T17:43:53.861Z,11.18
2022-10-20T17:46:57.624Z,11.15
2022-10-20T17:50:00.792Z,11.16
2022-10-20T17:53:05.489Z,11.02
2022-10-20T17:56:11.271Z,11.10
2022-10-20T17:59:14.308Z,11.11
2022-10-20T18:02:17.093Z,11.11
2022-10-20T18:05:20.244Z,11.13
2022-10-20T18:08:26.407Z,11.22
2022-10-20T18:11:31.830Z,11.09
2022-10-20T18:14:34.998Z,11.14
2022-10-20T18:17:38.368Z,11.11
2022-10-20T18:20:41.854Z,11.14
2022-10-20T18:23:47.386Z,11.19
2022-10-20T18:26:54.686Z,11.13
2022-10-20T18:29:57.815Z,11.09
2022-10-20T18:33:01.273Z,11.14
2022-10-20T18:36:05.129Z,10.99
2022-10-20T18:39:10.460Z,10.96
2022-10-20T18:42:14.181Z,11.01
2022-10-20T18:45:17.211Z,10.98
2022-10-20T18:48:20.141Z,10.98
2022-10-20T18:51:23.343Z,10.94
2022-10-20T18:54:27.681Z,10.98
2022-10-20T18:57:31.880Z,10.93
2022-10-20T19:00:35.975Z,10.88
2022-10-20T19:03:42.095Z,10.84
2022-10-20T19:06:46.830Z,10.73
2022-10-20T19:09:54.800Z,10.72
2022-10-20T19:12:59.520Z,10.66
2022-10-20T19:16:07.710Z,10.68
2022-10-20T19:19:13.001Z,10.64
2022-10-20T19:22:16.012Z,10.59
2022-10-20T19:25:20.667Z,10.50
2022-10-20T19:28:24.145Z,10.42
2022-10-20T19:31:29.942Z,10.32
2022-10-20T19:34:35.903Z,10.37
2022-10-20T19:37:38.962Z,10.47
2022-10-20T19:40:43.910Z,10.45
2022-10-20T19:43:47.410Z,10.49
2022-10-20T19:46:52.625Z,10.46
2022-10-20T19:49:55.273Z,10.36
2022-10-20T19:52:59.348Z,10.33
2022-10-20T19:56:04.550Z,10.38
2022-10-20T19:59:08.139Z,10.38
2022-10-20T20:02:11.994Z,10.27
2022-10-20T20:05:14.956Z,10.39
2022-10-20T20:08:17.629Z,10.39
2022-10-20T20:11:21.999Z,10.38
2022-10-20T20:14:24.410Z,10.38
2022-10-20T20:17:27.616Z,10.33
2022-10-20T20:20:31.677Z,10.22
2022-10-20T20:23:54.452Z,10.07
2022-10-20T20:27:00.162Z,10.16
2022-10-20T20:30:02.581Z,9.95
2022-10-20T20:33:05.547Z,9.98
2022-10-20T20:36:08.782Z,10.02
2022-10-20T20:39:10.918Z,10.08
2022-10-20T20:42:14.740Z,10.04
2022-10-20T20:45:16.729Z,9.98
2022-10-20T20:48:18.865Z,10.05
2022-10-20T20:51:21.000Z,9.94
2022-10-20T20:54:23.153Z,9.95
2022-10-20T20:57:28.731Z,10.02
2022-10-20T21:00:30.671Z,9.99
2022-10-20T21:03:33.655Z,10.12
2022-10-20T21:07:00.648Z,10.09
2022-10-20T21:10:00.464Z,10.12
2022-10-20T21:13:03.840Z,10.05
2022-10-20T21:16:10.839Z,10.14
2022-10-20T21:19:12.926Z,10.12
2022-10-20T21:22:14.973Z,10.05
2022-10-20T21:25:17.200Z,10.05
2022-10-20T21:28:20.547Z,10.01
2022-10-20T21:31:24.198Z,9.90
2022-10-20T21:34:27.280Z,9.88
2022-10-20T21:37:29.268Z,9.70
2022-10-20T21:40:31.907Z,9.82
2022-10-20T21:43:37.371Z,9.86
2022-10-20T21:46:40.602Z,9.80
2022-10-20T21:49:42.547Z,9.73
2022-10-20T21:52:44.502Z,9.61
2022-10-20T21:55:46.502Z,9.66
2022-10-20T21:58:50.294Z,9.70
2022-10-20T22:01:54.187Z,9.62
2022-10-20T22:04:56.100Z,9.69
2022-10-20T22:07:58.044Z,9.62
2022-10-20T22:11:03.241Z,9.72
2022-10-20T22:14:06.781Z,9.69
2022-10-20T22:17:09.033Z,9.63
2022-10-20T22:20:11.391Z,9.62
2022-10-20T22:23:13.539Z,9.63
2022-10-20T22:26:15.523Z,9.68
2022-10-20T22:29:19.845Z,9.77
2022-10-20T22:32:21.885Z,9.80
2022-10-20T22:35:23.894Z,9.85
2022-10-20T22:38:25.888Z,9.90
2022-10-20T22:41:27.926Z,9.96
2022-10-20T22:44:31.199Z,9.90
2022-10-20T22:47:33.154Z,9.97
2022-10-20T22:50:35.236Z,9.92
2022-10-20T22:53:37.277Z,9.89
2022-10-20T22:56:39.210Z,9.92
2022-10-20T22:59:42.722Z,9.78
2022-10-20T23:02:45.081Z,9.78
2022-10-20T23:05:47.010Z,9.83
2022-10-20T23:08:50.727Z,9.81
2022-10-20T23:11:52.783Z,9.79
2022-10-20T23:14:56.436Z,9.74
2022-10-20T23:17:58.605Z,9.73
2022-10-20T23:21:00.683Z,9.74
2022-10-20T23:24:02.895Z,9.76
2022-10-20T23:27:04.929Z,9.77
2022-10-20T23:30:09.698Z,9.81
2022-10-20T23:33:11.623Z,9.70
2022-10-20T23:36:15.139Z,9.58
2022-10-20T23:39:17.287Z,9.50
2022-10-20T23:42:19.251Z,9.47
2022-10-20T23:45:22.594Z,9.48
2022-10-20T23:48:25.346Z,9.52
2022-10-20T23:51:27.691Z,9.48
2022-10-20T23:54:29.707Z,9.52
2022-10-20T23:57:32.009Z,9.51
